»·PEaware :: N2548T KRDD-KACV

N2548T :: KRDD-KACV

FLIGHT INFORMATION

Flight Status: Arrived
Operator: Privately registered:
United States
More flights under this callsign
Pilot: Edward K. (32197)
Aircraft: CESSNA 172 SKYHAWK
(C172)
More flights by this aircraft type
Origin: KRDD Redding Mun
United States
Destination: KACV Arcata
United States
More flights between these airports :: More routes between these airports
Route:
File this flight plan on PilotEdge
Remarks:
Altitude:
(Current/Filed)
6,500ft
Speed:
(Current/Filed)
115kts
Departed: 16-Nov-20 11:32 AM
Arrived: 16-Nov-20 12:26 PM
Distance/Time
Traveled:
87nm/0:54
Distance/Time
To Go:
Arrived

Flight Plot

Page will automatically refresh every two minutes.

Flight plan parsing failed; only flown route is shown


Map Options




Map Legend


Flown Route
Filed Route
Departure Airport
Arrival Airport
Navaid (VOR, NDB)
Fix

Horizontal Profiles

Position Reports

Time Latitude Longitude Heading Altitude Ground
Speed
16-Nov-20 11:30 40.458323 -122.648299 304 6531ft 95kts
16-Nov-20 11:31 40.475040 -122.676985 303 6534ft 96kts
16-Nov-20 11:32 40.491738 -122.705645 303 6534ft 96kts
16-Nov-20 11:33 40.508469 -122.734371 303 6534ft 96kts
16-Nov-20 11:34 40.525264 -122.763218 303 6534ft 96kts
16-Nov-20 11:35 40.541993 -122.791959 303 6534ft 96kts
16-Nov-20 11:36 40.558642 -122.820569 303 6534ft 96kts
16-Nov-20 11:37 40.575341 -122.849278 303 6533ft 96kts
16-Nov-20 11:38 40.591693 -122.877397 303 6533ft 96kts
16-Nov-20 11:39 40.608132 -122.905676 303 6533ft 96kts
16-Nov-20 11:40 40.624771 -122.934318 303 6533ft 95kts
16-Nov-20 11:41 40.641132 -122.963289 302 6533ft 95kts
16-Nov-20 11:42 40.657374 -122.992236 302 6533ft 95kts
16-Nov-20 11:43 40.673622 -123.021218 302 6533ft 94kts
16-Nov-20 11:44 40.689808 -123.050112 302 6533ft 94kts
16-Nov-20 11:45 40.705947 -123.078944 302 6533ft 94kts
16-Nov-20 11:46 40.722135 -123.107887 302 6532ft 93kts
16-Nov-20 11:47 40.738456 -123.137091 302 6526ft 93kts
16-Nov-20 11:48 40.754602 -123.166005 302 6513ft 93kts
16-Nov-20 11:49 40.771189 -123.195725 301 6499ft 93kts
16-Nov-20 11:50 40.788071 -123.225978 302 6470ft 94kts
16-Nov-20 11:51 40.805311 -123.256814 302 6458ft 93kts
16-Nov-20 11:52 40.822628 -123.287796 302 6445ft 93kts
16-Nov-20 11:53 40.839941 -123.318786 302 6432ft 93kts
16-Nov-20 11:54 40.857278 -123.349834 302 6418ft 93kts
16-Nov-20 11:55 40.874489 -123.380668 302 6412ft 93kts
16-Nov-20 11:56 40.891726 -123.411559 302 6412ft 93kts
16-Nov-20 11:57 40.908859 -123.442144 303 6412ft 93kts
16-Nov-20 11:58 40.926443 -123.472650 303 6412ft 93kts
16-Nov-20 11:59 40.943973 -123.503048 303 6412ft 93kts
16-Nov-20 12:00 40.961484 -123.533423 303 6412ft 93kts
16-Nov-20 12:01 40.978915 -123.563679 303 6412ft 92kts
16-Nov-20 12:02 40.996139 -123.593602 303 6411ft 92kts
16-Nov-20 12:03 41.012998 -123.622920 302 6411ft 91kts
16-Nov-20 12:04 41.029793 -123.652154 302 6413ft 90kts
16-Nov-20 12:05 41.046840 -123.681865 302 6415ft 91kts
16-Nov-20 12:06 41.063830 -123.711498 301 6414ft 90kts
16-Nov-20 12:07 41.080743 -123.741027 301 6414ft 90kts
16-Nov-20 12:08 41.097668 -123.770606 301 6414ft 89kts
16-Nov-20 12:09 41.114467 -123.800004 301 6416ft 89kts
16-Nov-20 12:10 41.131292 -123.829474 301 6416ft 89kts
16-Nov-20 12:11 41.148046 -123.858835 301 6415ft 88kts
16-Nov-20 12:12 41.164792 -123.888192 301 6415ft 88kts
16-Nov-20 12:13 41.181625 -123.917969 289 5879ft 97kts
16-Nov-20 12:14 41.168673 -123.957599 241 4878ft 111kts
16-Nov-20 12:15 41.146532 -123.993422 237 3775ft 107kts
16-Nov-20 12:16 41.129225 -124.018500 228 2444ft 107kts
16-Nov-20 12:17 41.114199 -124.036744 221 1906ft 70kts
16-Nov-20 12:19 41.095509 -124.045487 186 1582ft 78kts
16-Nov-20 12:20 41.072483 -124.057034 171 1610ft 104kts
16-Nov-20 12:21 41.044652 -124.058317 220 1605ft 114kts
16-Nov-20 12:22 41.040301 -124.062685 213 1813ft 82kts
16-Nov-20 12:23 41.037130 -124.065868 228 1869ft 58kts
16-Nov-20 12:24 41.028649 -124.075234 201 1324ft 54kts
16-Nov-20 12:25 41.013119 -124.081845 212 954ft 60kts
16-Nov-20 12:26 41.002533 -124.089986 212 699ft 27kts
16-Nov-20 12:27 40.994478 -124.096218 213 677ft 29kts
16-Nov-20 12:28 40.986470 -124.102334 211 379ft 33kts
16-Nov-20 12:29 40.981249 -124.106168 218 226ft 15kts
16-Nov-20 12:30 40.977618 -124.108941 169 226ft 0kts
16-Nov-20 12:31 40.973627 -124.108148 139 226ft 9kts
16-Nov-20 12:32 40.973471 -124.107941 133 226ft 0kts
16-Nov-20 12:33 40.973399 -124.107841 136 226ft 0kts
16-Nov-20 12:34 40.973399 -124.107841 136 226ft 0kts
16-Nov-20 12:35 40.973399 -124.107841 136 226ft 0kts
16-Nov-20 12:36 40.973399 -124.107841 135 226ft 0kts
16-Nov-20 12:37 40.973399 -124.107841 135 226ft 0kts
16-Nov-20 12:38 40.973399 -124.107841 135 226ft 0kts
16-Nov-20 12:38 40.973399 -124.107841 135 226ft 0kts
16-Nov-20 12:39 40.973399 -124.107841 135 226ft 0kts

Navigation Log

Ident Type
Flight plan parsing failed, navigation log unavailable